createdAt,value
2022-09-07T00:00:26.578Z,9.40
2022-09-07T00:02:53.728Z,9.80
2022-09-07T00:05:20.916Z,9.38
2022-09-07T00:07:48.055Z,9.63
2022-09-07T00:10:15.085Z,8.80
2022-09-07T00:12:42.327Z,8.40
2022-09-07T00:15:11.564Z,8.48
2022-09-07T00:17:39.304Z,7.93
2022-09-07T00:20:08.679Z,6.07
2022-09-07T00:22:35.954Z,6.20
2022-09-07T00:25:03.474Z,5.40
2022-09-07T00:27:30.798Z,6.10
2022-09-07T00:29:57.795Z,5.80
2022-09-07T00:32:24.916Z,5.55
2022-09-07T00:34:51.922Z,5.40
2022-09-07T00:37:18.942Z,5.10
2022-09-07T00:39:45.904Z,5.25
2022-09-07T00:42:13.016Z,5.40
2022-09-07T00:44:42.939Z,4.82
2022-09-07T00:47:15.153Z,5.30
2022-09-07T00:49:43.554Z,4.82
2022-09-07T00:52:11.304Z,5.07
2022-09-07T00:54:42.271Z,5.40
2022-09-07T00:57:09.506Z,5.40
2022-09-07T00:59:39.675Z,5.65
2022-09-07T01:02:06.944Z,6.50
2022-09-07T01:04:35.017Z,6.65
2022-09-07T01:07:03.713Z,5.85
2022-09-07T01:09:31.122Z,5.80
2022-09-07T01:12:00.235Z,5.53
2022-09-07T01:14:42.065Z,6.60
2022-09-07T01:17:30.859Z,5.90
2022-09-07T01:20:10.502Z,7.10
2022-09-07T01:23:14.975Z,6.63
2022-09-07T01:25:53.506Z,6.03
2022-09-07T01:28:26.611Z,5.63
2022-09-07T01:31:12.370Z,5.80
2022-09-07T01:34:20.194Z,6.25
2022-09-07T01:37:05.316Z,6.80
2022-09-07T01:40:09.344Z,6.38
2022-09-07T01:42:51.303Z,6.47
2022-09-07T01:45:20.084Z,6.38
2022-09-07T01:47:50.963Z,6.72
2022-09-07T01:50:26.385Z,7.23
2022-09-07T01:52:58.383Z,6.07
2022-09-07T02:00:48.044Z,6.03
2022-09-07T02:05:51.915Z,6.40
2022-09-07T02:08:29.019Z,6.47
2022-09-07T02:11:01.484Z,6.28
2022-09-07T02:13:33.309Z,5.85
2022-09-07T02:16:03.501Z,6.88
2022-09-07T02:18:36.353Z,6.40
2022-09-07T02:21:04.033Z,7.55
2022-09-07T02:23:57.002Z,6.95
2022-09-07T02:26:25.593Z,6.50
2022-09-07T02:28:52.519Z,6.80
2022-09-07T02:31:20.112Z,6.80
2022-09-07T02:33:47.696Z,6.38
2022-09-07T02:36:16.466Z,7.13
2022-09-07T02:38:43.342Z,6.85
2022-09-07T02:41:37.586Z,6.38
2022-09-07T02:44:26.005Z,7.15
2022-09-07T02:47:18.243Z,7.60
2022-09-07T02:49:48.043Z,7.05
2022-09-07T02:52:44.086Z,6.47
2022-09-07T02:55:16.715Z,6.47
2022-09-07T02:58:20.974Z,6.10
2022-09-07T03:01:13.797Z,6.65
2022-09-07T03:04:11.653Z,6.82
2022-09-07T03:06:46.905Z,7.78
2022-09-07T03:09:20.203Z,6.97
2022-09-07T03:11:47.764Z,7.35
2022-09-07T03:14:23.212Z,8.27
2022-09-07T03:16:51.871Z,7.20
2022-09-07T03:19:18.879Z,7.32
2022-09-07T03:21:45.962Z,7.50
2022-09-07T03:24:12.913Z,8.68
2022-09-07T03:26:49.054Z,7.85
2022-09-07T03:29:16.305Z,8.02
2022-09-07T03:31:43.363Z,7.40
2022-09-07T03:34:10.693Z,7.93
2022-09-07T03:36:38.160Z,8.10
2022-09-07T03:39:07.367Z,7.45
2022-09-07T03:41:34.754Z,7.25
2022-09-07T03:44:05.673Z,7.60
2022-09-07T03:46:33.494Z,7.00
2022-09-07T03:49:00.556Z,7.13
2022-09-07T03:51:27.602Z,7.97
2022-09-07T03:53:54.648Z,9.23
2022-09-07T03:56:23.514Z,8.02
2022-09-07T03:58:51.505Z,8.43
2022-09-07T04:01:23.555Z,9.05
2022-09-07T04:03:51.211Z,8.57
2022-09-07T04:06:18.911Z,7.97
2022-09-07T04:08:46.263Z,7.80
2022-09-07T04:11:15.540Z,7.38
2022-09-07T04:13:42.574Z,8.48
2022-09-07T04:16:21.146Z,7.82
2022-09-07T04:18:50.372Z,7.15
2022-09-07T04:21:18.629Z,7.20
2022-09-07T04:23:45.918Z,7.43
2022-09-07T04:26:38.693Z,7.65
2022-09-07T04:29:06.931Z,7.47
2022-09-07T04:31:35.154Z,6.70
2022-09-07T04:34:02.886Z,5.90
2022-09-07T04:36:30.910Z,5.50
2022-09-07T04:39:03.966Z,5.75
2022-09-07T04:41:32.562Z,5.60
2022-09-07T04:44:01.054Z,5.05
2022-09-07T04:46:33.889Z,5.28
2022-09-07T04:49:04.333Z,5.20
2022-09-07T04:51:32.482Z,4.93
2022-09-07T04:54:01.665Z,5.35
2022-09-07T04:56:29.192Z,5.88
2022-09-07T04:58:56.807Z,6.10
2022-09-07T05:01:25.340Z,6.35
2022-09-07T05:03:52.561Z,7.30
2022-09-07T05:06:20.900Z,6.43
2022-09-07T05:08:50.076Z,5.85
2022-09-07T05:11:17.761Z,5.03
2022-09-07T05:13:44.764Z,4.13
2022-09-07T05:16:17.577Z,3.88
2022-09-07T05:18:45.437Z,4.13
2022-09-07T05:21:18.304Z,4.05
2022-09-07T05:23:45.914Z,3.97
2022-09-07T05:26:12.880Z,4.15
2022-09-07T05:28:39.922Z,4.50
2022-09-07T05:31:19.630Z,4.10
2022-09-07T05:36:36.064Z,4.55
2022-09-07T05:39:04.023Z,5.00
2022-09-07T05:41:31.784Z,5.63
2022-09-07T05:46:45.876Z,5.78
2022-09-07T05:49:12.942Z,6.20
2022-09-07T05:51:39.929Z,5.78
2022-09-07T05:54:07.171Z,6.10
2022-09-07T05:56:36.169Z,6.30
2022-09-07T05:59:29.900Z,5.72
2022-09-07T06:01:57.016Z,6.40
2022-09-07T06:04:24.071Z,6.20
2022-09-07T06:07:18.034Z,5.88
2022-09-07T06:12:26.100Z,6.60
2022-09-07T06:14:53.170Z,6.22
2022-09-07T06:17:20.134Z,5.97
2022-09-07T06:19:47.136Z,6.03
2022-09-07T06:22:14.096Z,6.25
2022-09-07T06:24:41.081Z,6.07
2022-09-07T06:27:08.020Z,5.90
2022-09-07T06:29:35.514Z,5.50
2022-09-07T06:34:50.216Z,7.47
2022-09-07T06:37:17.203Z,5.88
2022-09-07T06:39:44.440Z,6.00
2022-09-07T06:42:11.842Z,6.35
2022-09-07T06:44:43.484Z,6.65
2022-09-07T06:47:10.802Z,5.10
2022-09-07T06:49:37.880Z,5.20
2022-09-07T06:52:05.330Z,4.90
2022-09-07T06:57:19.271Z,3.90
2022-09-07T06:59:46.240Z,3.90
2022-09-07T07:02:15.082Z,3.90
2022-09-07T07:04:42.163Z,3.58
2022-09-07T07:07:13.730Z,3.72
2022-09-07T07:09:41.775Z,3.50
2022-09-07T07:12:09.745Z,3.40
2022-09-07T07:14:39.643Z,3.13
2022-09-07T07:17:09.761Z,2.97
2022-09-07T07:19:36.745Z,3.38
2022-09-07T07:22:29.493Z,3.00
2022-09-07T07:24:50.833Z,2.85
2022-09-07T07:27:17.818Z,2.80
2022-09-07T07:29:45.803Z,2.80
2022-09-07T07:32:13.043Z,3.30
2022-09-07T07:34:40.390Z,3.15
2022-09-07T07:37:07.370Z,3.22
2022-09-07T07:42:21.990Z,2.90
2022-09-07T07:44:49.065Z,2.45
2022-09-07T07:47:16.160Z,2.13
2022-09-07T07:49:43.161Z,2.45
2022-09-07T07:54:57.101Z,2.15
2022-09-07T07:57:24.192Z,2.03
2022-09-07T07:59:51.171Z,1.77
2022-09-07T08:02:18.273Z,1.80
2022-09-07T08:04:45.258Z,1.73
2022-09-07T08:07:12.350Z,1.92
2022-09-07T08:09:44.331Z,1.50
2022-09-07T08:14:43.301Z,1.98
2022-09-07T08:17:11.760Z,1.60
2022-09-07T08:19:39.401Z,2.00
2022-09-07T08:22:06.766Z,1.33
2022-09-07T08:24:33.869Z,1.17
2022-09-07T08:27:01.067Z,1.05
2022-09-07T08:29:31.323Z,0.88
2022-09-07T08:32:00.898Z,0.85
2022-09-07T08:34:27.862Z,0.82
2022-09-07T08:36:54.980Z,0.70
2022-09-07T08:39:22.003Z,0.80
2022-09-07T08:41:58.131Z,0.80
2022-09-07T08:44:41.791Z,0.63
2022-09-07T08:47:29.830Z,0.60
2022-09-07T08:50:21.362Z,0.70
2022-09-07T08:52:56.808Z,0.80
2022-09-07T08:55:47.080Z,1.00
2022-09-07T08:58:47.762Z,0.70
2022-09-07T09:01:34.260Z,0.70
2022-09-07T09:04:18.808Z,0.90
2022-09-07T09:06:59.480Z,0.70
2022-09-07T09:09:43.740Z,0.68
2022-09-07T09:12:33.295Z,0.60
2022-09-07T09:15:16.480Z,0.70
2022-09-07T09:18:02.153Z,0.63
2022-09-07T09:20:38.200Z,0.65
2022-09-07T09:23:12.793Z,0.85
2022-09-07T09:25:42.993Z,0.70
2022-09-07T09:28:12.260Z,0.90
2022-09-07T09:30:39.420Z,0.70
2022-09-07T09:33:17.008Z,0.70
2022-09-07T09:35:45.927Z,0.63
2022-09-07T09:38:34.718Z,0.77
2022-09-07T09:41:15.278Z,0.63
2022-09-07T09:43:58.290Z,0.98
2022-09-07T09:46:33.663Z,0.65
2022-09-07T09:49:03.828Z,0.60
2022-09-07T09:54:42.390Z,1.02
2022-09-07T09:57:38.918Z,0.60
2022-09-07T10:00:11.721Z,0.85
2022-09-07T10:05:53.470Z,0.90
2022-09-07T10:08:32.893Z,0.60
2022-09-07T10:11:05.780Z,0.63
2022-09-07T10:13:35.340Z,0.70
2022-09-07T10:16:05.986Z,0.80
2022-09-07T10:18:38.792Z,0.80
2022-09-07T10:21:14.452Z,0.77
2022-09-07T10:23:41.684Z,0.88
2022-09-07T10:26:30.359Z,1.00
2022-09-07T10:29:19.390Z,0.85
2022-09-07T10:32:04.871Z,0.75
2022-09-07T10:34:43.911Z,0.80
2022-09-07T10:37:18.321Z,0.90
2022-09-07T10:40:18.192Z,0.70
2022-09-07T10:43:21.089Z,0.70
2022-09-07T10:45:57.356Z,0.85
2022-09-07T10:48:56.631Z,0.82
2022-09-07T10:51:44.570Z,0.90
2022-09-07T10:54:38.621Z,0.60
2022-09-07T10:57:05.581Z,0.75
2022-09-07T11:00:13.515Z,0.80
2022-09-07T11:03:24.955Z,0.65
2022-09-07T11:06:09.727Z,0.80
2022-09-07T11:12:04.879Z,0.80
2022-09-07T11:14:54.174Z,0.77
2022-09-07T11:17:24.795Z,0.70
2022-09-07T11:20:03.944Z,0.80
2022-09-07T11:22:35.981Z,1.02
2022-09-07T11:25:31.062Z,0.80
2022-09-07T11:28:02.399Z,0.73
2022-09-07T11:30:40.309Z,2.60
2022-09-07T11:33:26.903Z,1.60
2022-09-07T11:35:58.784Z,0.90
2022-09-07T11:41:35.932Z,0.80
2022-09-07T11:44:18.882Z,0.70
2022-09-07T11:46:48.920Z,1.67
2022-09-07T11:49:20.813Z,1.00
2022-09-07T11:54:53.570Z,1.00
2022-09-07T11:57:42.380Z,1.00
2022-09-07T12:00:19.502Z,0.80
2022-09-07T12:03:07.984Z,0.80
2022-09-07T12:05:45.282Z,0.70
2022-09-07T12:08:43.602Z,0.88
2022-09-07T12:11:42.850Z,0.90
2022-09-07T12:14:15.691Z,0.80
2022-09-07T12:16:54.980Z,0.80
2022-09-07T12:19:25.002Z,0.75
2022-09-07T12:21:52.180Z,1.00
2022-09-07T12:24:41.096Z,1.70
2022-09-07T12:27:19.935Z,1.48
2022-09-07T12:29:47.940Z,1.23
2022-09-07T12:32:55.447Z,1.77
2022-09-07T12:35:31.805Z,1.80
2022-09-07T12:38:00.432Z,1.45
2022-09-07T12:40:27.571Z,2.45
2022-09-07T12:43:20.939Z,1.27
2022-09-07T12:45:52.699Z,1.90
2022-09-07T12:51:08.133Z,1.60
2022-09-07T12:53:35.100Z,1.30
2022-09-07T12:56:26.662Z,1.15
2022-09-07T12:59:04.298Z,1.30
2022-09-07T13:01:41.984Z,1.55
2022-09-07T13:04:23.105Z,1.17
2022-09-07T13:07:03.635Z,1.10
2022-09-07T13:09:38.430Z,1.25
2022-09-07T13:15:45.111Z,1.20
2022-09-07T13:18:34.861Z,0.93
2022-09-07T13:21:08.523Z,0.85
2022-09-07T13:23:39.960Z,0.55
2022-09-07T13:26:09.772Z,0.70
2022-09-07T13:28:56.209Z,0.65
2022-09-07T13:31:29.007Z,0.70
2022-09-07T13:33:57.484Z,0.75
2022-09-07T13:36:51.001Z,0.68
2022-09-07T13:39:21.263Z,0.85
2022-09-07T13:41:56.150Z,0.70
2022-09-07T13:44:33.456Z,0.50
2022-09-07T13:47:25.478Z,0.80
2022-09-07T13:49:59.325Z,0.60
2022-09-07T13:52:37.313Z,0.68
2022-09-07T13:55:25.959Z,0.70
2022-09-07T13:58:11.968Z,0.55
2022-09-07T14:00:51.520Z,0.60
2022-09-07T14:03:18.795Z,0.70
2022-09-07T14:05:46.928Z,0.63
2022-09-07T14:08:28.089Z,0.82
2022-09-07T14:10:55.360Z,0.60
2022-09-07T14:13:22.380Z,0.70
2022-09-07T14:15:50.351Z,0.88
2022-09-07T14:18:43.990Z,0.65
2022-09-07T14:21:19.100Z,0.55
2022-09-07T14:23:50.055Z,0.90
2022-09-07T14:26:20.659Z,0.65
2022-09-07T14:28:53.497Z,0.73
2022-09-07T14:31:22.128Z,0.60
2022-09-07T14:33:55.736Z,0.60
2022-09-07T14:36:45.649Z,0.60
2022-09-07T14:39:16.112Z,0.88
2022-09-07T14:41:43.950Z,0.80
2022-09-07T14:44:40.527Z,0.50
2022-09-07T14:47:33.917Z,0.70
2022-09-07T14:50:06.783Z,0.60
2022-09-07T14:52:42.326Z,0.55
2022-09-07T14:55:32.519Z,0.73
2022-09-07T14:58:22.960Z,0.70
2022-09-07T15:03:39.676Z,0.60
2022-09-07T15:06:08.238Z,0.60
2022-09-07T15:08:44.822Z,0.60
2022-09-07T15:14:12.636Z,0.50
2022-09-07T15:16:44.806Z,0.47
2022-09-07T15:19:20.705Z,0.60
2022-09-07T15:21:47.899Z,0.43
2022-09-07T15:24:16.427Z,0.75
2022-09-07T15:27:04.489Z,0.50
2022-09-07T15:29:32.461Z,0.60
2022-09-07T15:32:04.455Z,0.50
2022-09-07T15:34:33.245Z,0.70
2022-09-07T15:37:01.750Z,0.63
2022-09-07T15:39:30.335Z,0.52
2022-09-07T15:41:58.889Z,0.60
2022-09-07T15:44:28.440Z,0.68
2022-09-07T15:49:47.681Z,0.70
2022-09-07T15:52:17.426Z,0.50
2022-09-07T15:54:44.489Z,0.50
2022-09-07T15:59:58.988Z,0.52
2022-09-07T16:05:13.216Z,0.60
2022-09-07T16:10:31.084Z,0.50
2022-09-07T16:13:01.119Z,0.50
2022-09-07T16:15:29.207Z,0.70
2022-09-07T16:17:56.259Z,0.80
2022-09-07T16:20:23.322Z,0.60
2022-09-07T16:25:37.748Z,0.60
2022-09-07T16:28:05.821Z,0.40
2022-09-07T16:30:33.537Z,0.85
2022-09-07T16:33:00.705Z,0.80
2022-09-07T16:35:27.766Z,0.88
2022-09-07T16:40:42.173Z,0.90
2022-09-07T16:43:10.030Z,0.70
2022-09-07T16:48:24.425Z,1.30
2022-09-07T16:51:00.438Z,1.95
2022-09-07T16:53:30.600Z,1.52
2022-09-07T16:56:02.398Z,1.85
2022-09-07T16:58:38.936Z,1.70
2022-09-07T17:01:08.010Z,2.13
2022-09-07T17:03:36.910Z,3.80
2022-09-07T17:06:05.650Z,1.85
2022-09-07T17:08:33.897Z,0.90
2022-09-07T17:11:02.664Z,0.90
2022-09-07T17:13:31.744Z,1.05
2022-09-07T17:16:03.809Z,0.98
2022-09-07T17:21:19.728Z,1.10
2022-09-07T17:23:54.342Z,1.35
2022-09-07T17:26:23.672Z,1.20
2022-09-07T17:29:00.110Z,1.90
2022-09-07T17:34:23.144Z,1.67
2022-09-07T17:36:51.239Z,2.15
2022-09-07T17:39:19.526Z,2.58
2022-09-07T17:41:48.242Z,1.88
2022-09-07T17:44:15.730Z,2.33
2022-09-07T17:46:42.989Z,1.70
2022-09-07T17:49:14.147Z,1.98
2022-09-07T17:51:41.478Z,2.20
2022-09-07T17:54:12.051Z,1.83
2022-09-07T17:56:40.321Z,2.10
2022-09-07T18:01:55.540Z,1.80
2022-09-07T18:04:22.960Z,1.85
2022-09-07T18:06:50.536Z,1.92
2022-09-07T18:09:17.968Z,2.00
2022-09-07T18:11:46.836Z,2.08
2022-09-07T18:14:15.123Z,2.03
2022-09-07T18:16:43.922Z,2.10
2022-09-07T18:19:12.065Z,1.92
2022-09-07T18:21:42.241Z,1.92
2022-09-07T18:24:17.217Z,2.08
2022-09-07T18:26:50.227Z,1.33
2022-09-07T18:29:33.952Z,1.75
2022-09-07T18:32:07.772Z,1.40
2022-09-07T18:34:36.703Z,1.80
2022-09-07T18:37:03.904Z,1.70
2022-09-07T18:39:31.171Z,1.70
2022-09-07T18:41:58.245Z,1.88
2022-09-07T18:47:23.090Z,1.73
2022-09-07T18:49:52.062Z,1.80
2022-09-07T18:55:10.425Z,1.80
2022-09-07T18:57:38.263Z,2.03
2022-09-07T19:00:07.203Z,1.67
2022-09-07T19:02:34.418Z,1.70
2022-09-07T19:07:49.266Z,2.38
2022-09-07T19:10:16.953Z,2.20
2022-09-07T19:12:46.227Z,1.80
2022-09-07T19:15:14.241Z,1.85
2022-09-07T19:17:41.489Z,2.33
2022-09-07T19:20:09.284Z,1.60
2022-09-07T19:22:36.333Z,2.00
2022-09-07T19:25:03.924Z,2.53
2022-09-07T19:27:33.247Z,3.17
2022-09-07T19:30:00.702Z,2.10
2022-09-07T19:32:27.999Z,3.15
2022-09-07T19:34:55.584Z,3.90
2022-09-07T19:37:25.744Z,3.30
2022-09-07T19:39:56.365Z,5.75
2022-09-07T19:42:23.919Z,9.45
2022-09-07T19:44:51.709Z,14.38
2022-09-07T19:47:19.120Z,8.05
2022-09-07T19:49:46.306Z,12.88
2022-09-07T19:52:13.443Z,5.25
2022-09-07T19:54:40.712Z,7.68
2022-09-07T19:57:07.992Z,12.40
2022-09-07T19:59:35.048Z,15.20
2022-09-07T20:02:02.163Z,18.20
2022-09-07T20:04:29.484Z,11.15
2022-09-07T20:06:56.825Z,9.10
2022-09-07T20:09:24.973Z,9.00
2022-09-07T20:11:52.140Z,10.68
2022-09-07T20:14:20.219Z,10.85
2022-09-07T20:16:47.551Z,10.02
2022-09-07T20:19:15.924Z,10.63
2022-09-07T20:21:43.213Z,10.57
2022-09-07T20:24:14.847Z,12.25
2022-09-07T20:26:42.342Z,12.52
2022-09-07T20:31:58.823Z,13.65
2022-09-07T20:34:27.843Z,11.48
2022-09-07T20:36:55.418Z,11.68
2022-09-07T20:39:23.432Z,12.73
2022-09-07T20:41:51.019Z,46.85
2022-09-07T20:44:19.869Z,11.55
2022-09-07T20:46:47.226Z,10.80
2022-09-07T20:49:15.789Z,9.93
2022-09-07T20:51:43.596Z,10.63
2022-09-07T20:54:11.426Z,10.57
2022-09-07T20:56:38.623Z,10.13
2022-09-07T20:59:06.871Z,9.70
2022-09-07T21:01:35.380Z,9.45
2022-09-07T21:04:02.827Z,8.55
2022-09-07T21:06:31.703Z,8.70
2022-09-07T21:08:59.267Z,7.93
2022-09-07T21:11:28.366Z,7.10
2022-09-07T21:14:06.862Z,6.18
2022-09-07T21:16:35.181Z,6.18
2022-09-07T21:19:03.750Z,6.97
2022-09-07T21:21:38.620Z,7.38
2022-09-07T21:24:07.651Z,8.30
2022-09-07T21:26:35.084Z,8.25
2022-09-07T21:29:05.132Z,8.55
2022-09-07T21:31:33.871Z,8.02
2022-09-07T21:34:02.413Z,7.65
2022-09-07T21:36:29.874Z,8.07
2022-09-07T21:38:57.368Z,8.00
2022-09-07T21:41:25.712Z,7.75
2022-09-07T21:43:57.325Z,7.53
2022-09-07T21:46:25.474Z,7.20
2022-09-07T21:48:52.784Z,6.45
2022-09-07T21:51:20.068Z,7.30
2022-09-07T21:53:52.446Z,8.00
2022-09-07T21:56:19.961Z,7.20
2022-09-07T21:58:46.910Z,6.95
2022-09-07T22:01:19.131Z,6.45
2022-09-07T22:03:48.286Z,6.38
2022-09-07T22:06:15.566Z,7.15
2022-09-07T22:08:42.967Z,7.50
2022-09-07T22:11:12.785Z,6.63
2022-09-07T22:13:40.045Z,5.60
2022-09-07T22:16:07.726Z,5.63
2022-09-07T22:18:36.984Z,5.32
2022-09-07T22:21:06.925Z,5.30
2022-09-07T22:23:35.513Z,4.88
2022-09-07T22:26:02.753Z,5.35
2022-09-07T22:28:31.024Z,4.63
2022-09-07T22:31:09.297Z,4.70
2022-09-07T22:33:36.683Z,5.05
2022-09-07T22:36:23.641Z,5.07
2022-09-07T22:38:53.506Z,5.20
2022-09-07T22:41:22.611Z,5.20
2022-09-07T22:43:51.142Z,4.70
2022-09-07T22:46:19.910Z,4.63
2022-09-07T22:48:47.561Z,4.95
2022-09-07T22:51:15.561Z,5.53
2022-09-07T22:53:43.943Z,6.57
2022-09-07T22:56:16.633Z,5.28
2022-09-07T22:58:57.284Z,5.80
2022-09-07T23:01:25.424Z,6.15
2022-09-07T23:03:53.241Z,5.55
2022-09-07T23:06:22.666Z,6.00
2022-09-07T23:08:50.428Z,5.45
2022-09-07T23:11:17.805Z,5.22
2022-09-07T23:13:45.064Z,5.07
2022-09-07T23:16:12.442Z,5.50
2022-09-07T23:18:40.948Z,5.05
2022-09-07T23:21:08.512Z,5.20
2022-09-07T23:23:35.646Z,4.80
2022-09-07T23:26:03.596Z,4.78
2022-09-07T23:28:31.027Z,4.28
2022-09-07T23:30:58.380Z,4.38
2022-09-07T23:33:26.309Z,4.85
2022-09-07T23:35:57.524Z,4.80
2022-09-07T23:38:25.543Z,4.20
2022-09-07T23:40:52.951Z,5.00
2022-09-07T23:43:20.016Z,4.78
2022-09-07T23:45:46.964Z,5.10
2022-09-07T23:48:14.103Z,4.85
2022-09-07T23:50:41.301Z,4.50
2022-09-07T23:53:08.522Z,5.53
2022-09-07T23:55:35.718Z,6.47
2022-09-07T23:58:02.944Z,5.45
